Time;durP1;ratioP1;P1;durP2;ratioP2;P2;SDS_P1;SDS_P2;PMS_P1;PMS_P2;Temp;Humidity;BMP_temperature;BMP_pressure;BME280_temperature;BME280_humidity;BME280_pressure;Samples;Min_cycle;Max_cycle;Signal;HPM_P1;HPM_P2
2022/01/26 00:06:46;;;;;;;46.95;28.83;;;7.10;67.70;;;;;;5051535;28;20129;-83
2022/01/26 00:09:13;;;;;;;48.53;30.55;;;7.10;68.20;;;;;;5043799;28;20483;-83
2022/01/26 00:11:40;;;;;;;51.28;30.85;;;7.10;67.70;;;;;;5070417;28;20059;-82
2022/01/26 00:14:11;;;;;;;47.53;29.13;;;7.10;67.70;;;;;;5071140;28;20056;-83
2022/01/26 00:16:40;;;;;;;48.25;29.13;;;7.10;67.70;;;;;;5069930;28;20045;-84
2022/01/26 00:19:17;;;;;;;47.13;30.20;;;7.10;67.70;;;;;;5053132;28;20289;-84
2022/01/26 00:21:48;;;;;;;50.42;30.17;;;7.10;67.70;;;;;;5068848;28;20051;-84
2022/01/26 00:29:35;;;;;;;47.85;27.80;;;7.10;67.80;;;;;;5069365;28;20027;-83
2022/01/26 00:40:21;;;;;;;50.17;29.80;;;7.10;67.70;;;;;;5068033;28;20040;-82
2022/01/26 00:42:50;;;;;;;45.67;27.92;;;7.10;67.70;;;;;;5066526;28;20086;-83
2022/01/26 00:45:24;;;;;;;53.47;31.45;;;7.10;67.70;;;;;;5066953;28;20040;-84
2022/01/26 00:47:50;;;;;;;48.55;29.08;;;7.10;67.80;;;;;;5050148;28;20035;-83
2022/01/26 00:50:16;;;;;;;46.38;29.80;;;7.10;67.80;;;;;;5066265;28;20127;-83
2022/01/26 00:52:45;;;;;;;46.20;29.35;;;7.10;67.80;;;;;;5068355;28;20029;-83
2022/01/26 00:55:17;;;;;;;47.70;28.38;;;7.10;67.80;;;;;;5066064;28;20028;-83
2022/01/26 00:57:44;;;;;;;49.17;30.10;;;7.00;67.60;;;;;;5067622;28;20533;-83
2022/01/26 01:00:14;;;;;;;47.40;29.00;;;7.00;67.70;;;;;;5066319;28;20040;-83
2022/01/26 01:02:40;;;;;;;46.90;28.13;;;7.10;67.80;;;;;;5068077;28;20117;-84
2022/01/26 01:05:34;;;;;;;43.53;28.08;;;7.10;67.80;;;;;;5067661;28;20051;-84
2022/01/26 01:08:02;;;;;;;46.63;28.85;;;7.10;67.80;;;;;;5067220;28;20038;-84
2022/01/26 01:10:28;;;;;;;45.42;29.00;;;7.10;68.30;;;;;;5083057;28;20036;-84
2022/01/26 01:12:57;;;;;;;47.08;28.92;;;7.10;67.80;;;;;;5067719;28;20040;-84
2022/01/26 01:15:25;;;;;;;46.03;27.73;;;7.10;67.80;;;;;;5065588;28;20036;-83
2022/01/26 01:17:56;;;;;;;46.75;27.88;;;7.00;67.60;;;;;;5083548;28;20033;-84
2022/01/26 01:31:39;;;;;;;47.28;29.13;;;7.00;67.60;;;;;;5066229;28;20040;-83
2022/01/26 01:34:04;;;;;;;47.47;27.92;;;7.10;67.80;;;;;;5066117;28;20115;-81
2022/01/26 01:36:32;;;;;;;44.58;27.40;;;7.00;67.70;;;;;;5065639;28;20032;-81
2022/01/26 01:38:58;;;;;;;44.30;26.85;;;7.00;67.70;;;;;;5069728;28;20036;-82
2022/01/26 01:41:24;;;;;;;43.60;27.15;;;7.00;67.70;;;;;;5069631;28;20025;-82
2022/01/26 01:43:51;;;;;;;42.38;27.80;;;7.00;67.70;;;;;;5069797;28;20364;-84
2022/01/26 01:46:17;;;;;;;52.92;29.13;;;7.00;67.70;;;;;;5069247;28;20032;-83
2022/01/26 01:48:43;;;;;;;47.10;27.35;;;7.00;67.70;;;;;;5069952;28;20142;-83
2022/01/26 01:51:12;;;;;;;47.72;29.33;;;7.00;67.70;;;;;;5069698;28;20531;-83
2022/01/26 01:53:41;;;;;;;45.08;27.63;;;7.00;67.80;;;;;;5070457;28;20547;-82
2022/01/26 01:56:13;;;;;;;43.50;26.77;;;7.00;67.70;;;;;;5071005;28;20101;-82
2022/01/26 01:58:40;;;;;;;47.47;27.30;;;7.00;67.80;;;;;;5070705;28;20051;-82
2022/01/26 02:01:07;;;;;;;43.15;28.15;;;7.00;67.70;;;;;;5069352;28;20037;-82
2022/01/26 02:03:33;;;;;;;43.72;26.58;;;7.00;67.70;;;;;;5070946;28;20039;-82
2022/01/26 02:05:59;;;;;;;46.03;26.98;;;7.10;67.90;;;;;;5069717;28;20028;-83
2022/01/26 02:08:25;;;;;;;45.88;28.13;;;7.10;67.90;;;;;;5070445;28;20028;-83
2022/01/26 02:10:52;;;;;;;43.17;27.02;;;7.00;67.70;;;;;;5070335;28;20098;-82
2022/01/26 02:13:26;;;;;;;37.90;24.83;;;7.00;67.70;;;;;;5069509;28;20082;-82
2022/01/26 02:16:16;;;;;;;43.17;26.90;;;7.10;67.90;;;;;;5069185;28;20028;-83
2022/01/26 02:56:17;;;;;;;42.63;26.35;;;7.00;67.80;;;;;;5071960;28;20074;-81
2022/01/26 03:04:15;;;;;;;44.33;26.50;;;7.00;67.90;;;;;;5071872;28;20554;-81
2022/01/26 03:06:59;;;;;;;47.30;26.35;;;7.00;67.90;;;;;;5072128;28;20062;-81
2022/01/26 03:09:30;;;;;;;42.08;26.52;;;7.00;67.80;;;;;;5070926;28;20070;-82
2022/01/26 03:11:58;;;;;;;42.45;25.95;;;7.00;67.80;;;;;;5071846;28;20042;-82
2022/01/26 03:16:57;;;;;;;42.83;26.40;;;6.90;67.70;;;;;;5070722;28;20068;-82
2022/01/26 03:19:46;;;;;;;;;;;7.00;67.90;;;;;;5070937;28;20391;-81
2022/01/26 03:35:46;;;;;;;43.13;25.20;;;6.90;67.70;;;;;;5072927;28;20052;-81
2022/01/26 03:38:19;;;;;;;42.35;26.63;;;6.90;67.70;;;;;;5073037;28;20090;-82
2022/01/26 03:40:48;;;;;;;41.83;24.73;;;6.90;67.70;;;;;;5072245;28;20302;-81
2022/01/26 03:43:14;;;;;;;43.67;26.98;;;6.90;67.80;;;;;;5072619;28;20029;-82
2022/01/26 03:45:40;;;;;;;45.83;26.25;;;6.90;67.80;;;;;;5071022;28;20036;-83
2022/01/26 03:48:06;;;;;;;44.10;26.65;;;6.90;67.80;;;;;;5054460;28;20143;-83
2022/01/26 03:50:32;;;;;;;40.75;25.50;;;6.90;67.80;;;;;;5072505;28;20029;-82
2022/01/26 03:52:58;;;;;;;43.33;27.45;;;7.00;68.00;;;;;;5070698;28;20032;-80
2022/01/26 03:55:24;;;;;;;45.15;27.60;;;6.90;67.80;;;;;;5071744;28;20032;-80
2022/01/26 03:57:50;;;;;;;43.28;26.25;;;6.90;67.80;;;;;;5071945;28;20071;-80
2022/01/26 04:00:17;;;;;;;46.33;25.38;;;6.90;67.80;;;;;;5069655;28;20448;-80
2022/01/26 04:02:43;;;;;;;41.92;25.80;;;6.90;67.80;;;;;;5072074;28;20032;-79
2022/01/26 04:05:11;;;;;;;45.22;27.20;;;7.00;68.00;;;;;;5070510;28;20032;-81
2022/01/26 04:07:39;;;;;;;42.72;24.70;;;7.00;68.00;;;;;;5070575;28;20036;-82
2022/01/26 04:10:19;;;;;;;44.42;26.58;;;7.00;68.50;;;;;;5070329;28;20033;-82
2022/01/26 04:12:45;;;;;;;43.97;27.00;;;7.00;68.00;;;;;;5070793;28;20032;-81
2022/01/26 04:15:22;;;;;;;41.63;26.30;;;6.90;67.80;;;;;;5070309;28;20050;-81
2022/01/26 04:17:48;;;;;;;41.80;25.70;;;6.90;67.80;;;;;;5069966;28;20024;-80
2022/01/26 04:20:15;;;;;;;42.95;26.10;;;6.90;67.70;;;;;;5070063;28;20487;-80
2022/01/26 04:22:51;;;;;;;43.10;25.48;;;7.00;68.00;;;;;;5069801;28;20048;-81
2022/01/26 04:25:21;;;;;;;46.03;27.02;;;7.00;68.00;;;;;;5070229;28;20029;-81
2022/01/26 04:27:51;;;;;;;43.67;26.80;;;6.90;67.80;;;;;;5070083;28;20047;-83
2022/01/26 04:30:17;;;;;;;41.95;25.27;;;6.90;67.80;;;;;;5053459;28;20185;-84
2022/01/26 04:32:43;;;;;;;46.25;27.70;;;6.90;67.70;;;;;;5069875;28;20455;-83
2022/01/26 04:35:10;;;;;;;42.60;25.70;;;6.90;67.80;;;;;;5070033;28;20051;-82
2022/01/26 04:38:22;;;;;;;45.33;26.38;;;6.90;67.80;;;;;;5087172;28;20387;-83
2022/01/26 04:40:30;;;;;;;41.55;25.50;;;6.90;67.80;;;;;;5058821;28;20045;-83
2022/01/26 04:43:02;;;;;;;42.08;25.60;;;6.90;67.80;;;;;;5086531;28;20153;-80
2022/01/26 04:45:29;;;;;;;43.53;26.45;;;6.90;67.80;;;;;;5071345;28;20038;-82
2022/01/26 04:47:55;;;;;;;42.25;25.75;;;6.90;67.80;;;;;;5086677;28;20342;-82
2022/01/26 04:50:21;;;;;;;46.97;28.25;;;6.90;68.30;;;;;;5071306;28;20028;-82
2022/01/26 04:52:47;;;;;;;43.53;25.70;;;7.00;68.00;;;;;;5071065;28;20070;-82
2022/01/26 04:55:14;;;;;;;42.70;25.55;;;7.00;68.00;;;;;;5070079;28;20025;-82
2022/01/26 04:57:40;;;;;;;40.72;25.58;;;7.00;68.00;;;;;;5071035;28;20028;-82
2022/01/26 05:00:08;;;;;;;40.88;25.73;;;6.90;67.70;;;;;;5069612;28;20043;-82
2022/01/26 05:02:35;;;;;;;41.85;25.35;;;7.00;67.90;;;;;;5071091;28;20123;-82
2022/01/26 05:05:01;;;;;;;44.35;25.83;;;6.90;67.70;;;;;;5069680;28;20040;-82
2022/01/26 05:07:27;;;;;;;40.88;25.17;;;7.00;67.90;;;;;;5069479;28;20460;-81
2022/01/26 05:09:53;;;;;;;45.25;26.67;;;7.00;67.90;;;;;;5069562;28;20395;-81
2022/01/26 05:12:20;;;;;;;40.45;25.65;;;6.90;67.70;;;;;;5085856;28;20500;-81
2022/01/26 05:14:47;;;;;;;47.17;27.25;;;7.00;68.00;;;;;;5070849;28;20032;-81
2022/01/26 05:17:14;;;;;;;44.22;27.92;;;7.00;67.90;;;;;;5070850;28;20033;-82
2022/01/26 05:19:40;;;;;;;41.35;25.00;;;6.90;67.80;;;;;;5069657;28;20145;-82
2022/01/26 05:22:07;;;;;;;44.53;27.60;;;6.90;67.80;;;;;;5069484;28;20036;-80
2022/01/26 05:24:33;;;;;;;40.25;25.55;;;6.90;67.80;;;;;;5070844;28;20052;-81
2022/01/26 05:26:59;;;;;;;44.22;26.73;;;6.90;67.80;;;;;;5069146;28;20493;-81
2022/01/26 05:29:25;;;;;;;41.95;26.13;;;6.90;67.80;;;;;;5070232;28;20025;-79
2022/01/26 05:31:51;;;;;;;41.28;26.23;;;6.90;67.80;;;;;;5073528;28;20032;-80
2022/01/26 05:34:17;;;;;;;43.17;25.67;;;6.90;67.80;;;;;;5073647;28;20090;-80
2022/01/26 05:36:43;;;;;;;42.05;24.83;;;6.90;67.80;;;;;;5073584;28;20025;-82
2022/01/26 05:39:09;;;;;;;42.50;25.38;;;7.00;68.00;;;;;;5073725;28;20452;-82
2022/01/26 05:41:38;;;;;;;43.13;27.02;;;6.90;67.80;;;;;;5055910;28;20089;-82
2022/01/26 05:44:05;;;;;;;42.47;25.85;;;6.90;67.80;;;;;;5090165;28;20062;-81
2022/01/26 05:46:45;;;;;;;47.47;26.63;;;6.90;67.80;;;;;;5074881;28;20032;-80
2022/01/26 05:49:12;;;;;;;39.38;24.17;;;6.90;67.80;;;;;;5057338;28;20059;-82
2022/01/26 05:51:40;;;;;;;39.45;24.08;;;6.90;67.80;;;;;;5061710;28;20057;-83
2022/01/26 05:54:09;;;;;;;41.15;24.80;;;6.90;67.80;;;;;;5065764;28;20029;-82
2022/01/26 05:56:35;;;;;;;42.72;25.30;;;7.00;68.00;;;;;;5070354;28;20005;-81
2022/01/26 05:59:01;;;;;;;39.38;25.38;;;7.00;68.00;;;;;;5078225;28;20020;-80
2022/01/26 06:01:27;;;;;;;45.03;26.80;;;7.00;68.00;;;;;;5091403;28;20046;-83
2022/01/26 06:03:53;;;;;;;39.83;24.85;;;6.90;67.80;;;;;;5090748;28;20060;-80
2022/01/26 06:06:19;;;;;;;41.20;25.52;;;7.00;68.00;;;;;;5091529;28;20047;-81
2022/01/26 06:08:45;;;;;;;41.03;25.95;;;7.00;68.00;;;;;;5092253;28;20020;-81
2022/01/26 06:11:11;;;;;;;43.05;24.98;;;6.90;67.80;;;;;;5091781;28;20288;-83
2022/01/26 06:13:37;;;;;;;42.97;25.73;;;7.00;68.00;;;;;;5091085;28;20047;-82
2022/01/26 06:16:04;;;;;;;42.00;23.92;;;6.90;67.80;;;;;;5090832;28;20028;-83
2022/01/26 06:18:30;;;;;;;40.20;23.80;;;6.90;67.80;;;;;;5051716;28;20082;-83
2022/01/26 06:20:56;;;;;;;41.28;25.65;;;6.90;67.80;;;;;;5049363;28;20057;-83
2022/01/26 06:23:26;;;;;;;38.55;24.88;;;6.90;67.90;;;;;;5051121;28;20029;-83
2022/01/26 06:25:54;;;;;;;40.70;25.15;;;6.90;67.80;;;;;;5071638;28;20059;-86
2022/01/26 06:28:22;;;;;;;41.95;25.30;;;6.90;67.80;;;;;;5077190;28;20122;-83
2022/01/26 06:30:51;;;;;;;38.33;24.83;;;6.90;67.80;;;;;;5073944;28;20024;-80
2022/01/26 06:33:18;;;;;;;35.45;20.10;;;6.90;67.90;;;;;;5074614;28;20036;-88
2022/01/26 06:35:44;;;;;;;36.30;20.73;;;6.90;68.10;;;;;;5071958;28;20554;-84
2022/01/26 06:38:11;;;;;;;34.22;20.27;;;7.00;68.50;;;;;;5071933;28;20032;-93
2022/01/26 06:40:37;;;;;;;37.85;22.65;;;7.00;68.60;;;;;;5079934;28;20182;-84
2022/01/26 06:43:09;;;;;;;38.78;22.35;;;7.10;68.80;;;;;;5069977;28;20086;-85
2022/01/26 06:45:40;;;;;;;36.47;21.98;;;7.10;68.80;;;;;;5066017;28;20095;-86
2022/01/26 06:50:51;;;;;;;40.08;23.13;;;7.10;68.70;;;;;;5050962;28;20033;-84
2022/01/26 06:53:17;;;;;;;38.15;23.02;;;7.10;68.70;;;;;;5050787;28;20106;-82
2022/01/26 06:55:43;;;;;;;38.42;23.10;;;7.00;68.50;;;;;;5050987;28;20341;-84
2022/01/26 06:58:09;;;;;;;35.15;21.35;;;7.00;68.60;;;;;;5053299;28;20029;-84
2022/01/26 07:00:35;;;;;;;37.22;21.33;;;6.90;68.50;;;;;;5084321;28;20051;-83
2022/01/26 07:03:01;;;;;;;38.38;22.60;;;6.90;68.70;;;;;;5068810;28;20078;-85
2022/01/26 07:05:27;;;;;;;38.78;21.17;;;6.90;68.80;;;;;;5070393;28;20021;-86
2022/01/26 07:07:53;;;;;;;37.50;22.52;;;6.90;68.80;;;;;;5068144;28;20107;-85
2022/01/26 07:10:20;;;;;;;39.50;22.67;;;6.90;68.90;;;;;;5068592;28;20028;-86
2022/01/26 07:12:46;;;;;;;38.67;22.75;;;6.90;68.90;;;;;;5068661;28;20518;-87
2022/01/26 07:23:30;;;;;;;37.40;23.50;;;6.60;68.60;;;;;;5050108;28;20484;-93
2022/01/26 07:25:56;;;;;;;39.63;23.90;;;6.50;68.50;;;;;;5066959;28;20033;-95
2022/01/26 07:28:22;;;;;;;42.55;24.40;;;6.50;68.50;;;;;;5060784;28;20044;-96
2022/01/26 07:30:50;;;;;;;36.83;22.83;;;6.40;68.40;;;;;;5071447;28;20028;-92
2022/01/26 07:33:16;;;;;;;39.25;23.90;;;6.30;68.30;;;;;;5069134;28;20074;-92
2022/01/26 07:35:42;;;;;;;39.85;23.90;;;6.30;68.40;;;;;;5070623;28;20063;-91
2022/01/26 07:38:08;;;;;;;40.80;23.67;;;6.30;68.50;;;;;;5069545;28;20036;-90
2022/01/26 07:40:34;;;;;;;38.85;24.48;;;6.20;68.30;;;;;;5067674;28;20511;-88
2022/01/26 07:43:00;;;;;;;40.75;24.55;;;6.10;68.20;;;;;;5068670;28;20037;-87
2022/01/26 07:45:26;;;;;;;39.28;23.63;;;6.10;68.30;;;;;;5068872;28;20036;-87
2022/01/26 07:47:55;;;;;;;40.25;24.42;;;6.10;68.30;;;;;;5068370;28;20443;-89
2022/01/26 07:50:21;;;;;;;41.15;22.48;;;6.00;68.20;;;;;;5067874;28;20033;-89
2022/01/26 07:52:48;;;;;;;42.97;24.88;;;6.00;68.20;;;;;;5067893;28;20028;-88
2022/01/26 07:55:17;;;;;;;40.42;23.70;;;6.00;68.20;;;;;;5068002;28;20519;-89
2022/01/26 07:57:45;;;;;;;41.67;25.10;;;5.90;68.10;;;;;;5067825;28;20140;-88
2022/01/26 08:00:12;;;;;;;39.17;24.60;;;5.80;67.90;;;;;;5066819;28;20510;-89
2022/01/26 08:02:42;;;;;;;42.40;23.75;;;5.80;68.00;;;;;;5067872;28;20055;-88
2022/01/26 08:05:09;;;;;;;40.75;24.30;;;5.80;68.00;;;;;;5055684;28;20032;-89
2022/01/26 08:07:35;;;;;;;42.55;24.45;;;5.70;67.90;;;;;;5049888;28;20060;-90
2022/01/26 08:10:02;;;;;;;38.30;23.83;;;5.70;67.90;;;;;;5064937;28;20039;-89
2022/01/26 08:12:28;;;;;;;39.25;24.48;;;5.70;68.40;;;;;;5068959;28;20387;-87
2022/01/26 08:14:54;;;;;;;39.08;24.80;;;5.60;67.70;;;;;;5072522;28;20032;-95
2022/01/26 08:17:20;;;;;;;40.65;24.67;;;5.60;67.80;;;;;;5068594;28;20025;-91
2022/01/26 08:19:51;;;;;;;45.70;27.08;;;5.50;67.60;;;;;;5067396;28;20044;-89
2022/01/26 08:22:20;;;;;;;41.40;24.42;;;5.50;67.60;;;;;;5067611;28;20511;-93
2022/01/26 08:24:47;;;;;;;40.83;24.40;;;5.50;67.60;;;;;;5070246;28;20175;-96
2022/01/26 08:27:16;;;;;;;42.28;25.35;;;5.50;67.70;;;;;;5084737;28;20069;-87
2022/01/26 08:29:46;;;;;;;43.00;25.15;;;5.50;67.70;;;;;;5067963;28;20475;-88
2022/01/26 08:32:12;;;;;;;40.40;24.27;;;5.50;67.80;;;;;;5050025;28;20174;-88
2022/01/26 08:34:39;;;;;;;40.75;25.58;;;5.40;67.60;;;;;;5066495;28;20372;-88
2022/01/26 08:37:06;;;;;;;42.05;25.95;;;5.40;67.60;;;;;;5067206;28;20036;-87
2022/01/26 08:39:34;;;;;;;39.63;25.15;;;5.40;67.60;;;;;;5067257;28;20348;-90
2022/01/26 08:42:02;;;;;;;48.40;26.38;;;5.50;67.80;;;;;;5068815;28;20062;-91
2022/01/26 08:44:28;;;;;;;39.55;25.73;;;5.50;67.70;;;;;;5084084;28;20060;-89
2022/01/26 08:46:56;;;;;;;44.08;23.92;;;5.60;67.80;;;;;;5068940;28;20024;-91
2022/01/26 08:49:24;;;;;;;41.25;25.75;;;5.60;67.80;;;;;;5067120;28;20028;-87
2022/01/26 08:51:51;;;;;;;43.72;25.55;;;5.60;67.80;;;;;;5067511;28;20059;-88
2022/01/26 08:54:20;;;;;;;50.28;26.95;;;5.70;67.90;;;;;;5067408;28;20029;-88
2022/01/26 08:56:53;;;;;;;45.38;26.88;;;5.70;67.80;;;;;;5070230;28;20067;-88
2022/01/26 08:59:21;;;;;;;44.95;25.60;;;5.80;68.00;;;;;;5052938;28;20047;-85
2022/01/26 09:01:47;;;;;;;44.47;25.95;;;5.90;68.10;;;;;;5084499;28;20062;-93
2022/01/26 09:04:14;;;;;;;39.40;25.30;;;5.90;68.00;;;;;;5053836;28;20077;-90
2022/01/26 09:06:56;;;;;;;40.90;26.83;;;6.00;68.10;;;;;;5068134;28;20122;-88
2022/01/26 09:09:27;;;;;;;42.20;25.37;;;6.00;68.00;;;;;;5068599;28;20457;-87
2022/01/26 09:11:55;;;;;;;36.53;23.50;;;6.10;68.10;;;;;;5051682;28;20360;-91
2022/01/26 09:14:25;;;;;;;39.92;24.95;;;6.10;68.00;;;;;;5070023;28;20066;-90
2022/01/26 09:16:53;;;;;;;41.33;25.50;;;6.20;68.00;;;;;;5069109;28;20446;-89
2022/01/26 09:19:29;;;;;;;40.63;25.38;;;6.20;68.00;;;;;;5058847;28;20084;-89
2022/01/26 09:22:15;;;;;;;39.53;24.67;;;6.30;68.00;;;;;;5064740;28;20044;-90
2022/01/26 09:24:43;;;;;;;39.85;25.58;;;6.30;67.90;;;;;;5050016;28;20163;-92
2022/01/26 09:27:14;;;;;;;41.75;26.15;;;6.40;68.00;;;;;;5064817;28;20052;-89
2022/01/26 09:29:41;;;;;;;42.75;25.30;;;6.50;68.10;;;;;;5050257;28;20119;-90
2022/01/26 09:32:08;;;;;;;37.78;23.75;;;6.50;68.00;;;;;;5068857;28;20476;-93
2022/01/26 09:34:35;;;;;;;38.35;24.27;;;6.60;68.10;;;;;;5067246;28;20039;-90
2022/01/26 09:37:03;;;;;;;38.42;23.45;;;6.60;68.00;;;;;;5069899;28;20021;-92
2022/01/26 09:39:29;;;;;;;37.50;23.55;;;6.60;68.50;;;;;;5067358;28;20036;-89
2022/01/26 09:41:55;;;;;;;36.95;23.80;;;6.70;68.00;;;;;;5068660;28;20086;-91
2022/01/26 09:44:22;;;;;;;39.15;23.60;;;6.70;68.00;;;;;;5066977;28;20028;-89
2022/01/26 09:46:49;;;;;;;36.92;23.25;;;6.80;68.10;;;;;;5068420;28;20031;-87
2022/01/26 09:49:16;;;;;;;34.03;23.00;;;6.80;68.00;;;;;;5068524;28;20056;-89
2022/01/26 09:51:47;;;;;;;37.17;24.27;;;6.80;68.00;;;;;;5049748;28;20036;-88
2022/01/26 09:54:16;;;;;;;35.83;22.80;;;6.90;68.10;;;;;;5066170;28;20078;-89
2022/01/26 09:56:44;;;;;;;36.13;24.42;;;6.90;68.00;;;;;;5066754;28;20059;-91
2022/01/26 09:59:10;;;;;;;36.55;23.23;;;7.00;68.10;;;;;;5070033;28;20037;-89
2022/01/26 10:01:54;;;;;;;40.15;25.25;;;7.10;68.20;;;;;;5072277;28;20059;-88
2022/01/26 10:04:22;;;;;;;37.05;23.35;;;7.20;68.20;;;;;;5071084;28;20044;-87
2022/01/26 10:07:08;;;;;;;36.80;23.00;;;7.20;68.60;;;;;;5070747;28;20098;-84
2022/01/26 10:17:39;;;;;;;37.10;23.10;;;7.70;68.20;;;;;;5070918;28;20039;-93
2022/01/26 10:20:09;;;;;;;37.67;23.83;;;7.80;68.20;;;;;;5071317;28;20041;-83
2022/01/26 10:22:36;;;;;;;36.78;24.45;;;7.90;68.30;;;;;;5070164;28;20137;-90
2022/01/26 10:25:10;;;;;;;36.83;24.60;;;8.00;68.20;;;;;;5071065;28;20036;-88
2022/01/26 10:27:44;;;;;;;35.85;22.58;;;8.20;68.40;;;;;;5072295;28;20029;-90
2022/01/26 10:30:14;;;;;;;35.72;23.98;;;8.30;68.30;;;;;;5086288;28;20036;-90
2022/01/26 10:32:42;;;;;;;37.80;23.63;;;8.40;68.30;;;;;;5070468;28;20442;-89
2022/01/26 10:35:09;;;;;;;32.63;22.08;;;8.60;68.40;;;;;;5071455;28;20098;-90
2022/01/26 10:37:40;;;;;;;36.15;23.45;;;8.70;68.30;;;;;;5072253;28;20123;-91
2022/01/26 10:40:14;;;;;;;35.05;22.50;;;8.80;68.20;;;;;;5054665;28;20051;-92
2022/01/26 10:42:51;;;;;;;34.90;23.73;;;9.00;68.30;;;;;;5072611;28;20043;-87
2022/01/26 10:45:20;;;;;;;37.55;21.60;;;9.10;68.20;;;;;;5074439;28;20036;-90
2022/01/26 10:47:47;;;;;;;36.50;24.63;;;9.20;68.20;;;;;;5070937;28;20028;-94
2022/01/26 10:53:10;;;;;;;37.53;24.38;;;9.40;68.10;;;;;;5055833;28;20029;-92
2022/01/26 10:55:37;;;;;;;34.17;23.17;;;9.50;68.00;;;;;;5057943;28;20056;-95
2022/01/26 10:58:05;;;;;;;33.38;22.70;;;9.60;68.00;;;;;;5064148;28;20087;-95
2022/01/26 11:00:36;;;;;;;32.30;22.38;;;9.70;68.00;;;;;;5074058;28;20047;-93
2022/01/26 11:03:04;;;;;;;34.45;23.08;;;9.80;68.00;;;;;;5079409;28;20131;-93
2022/01/26 11:05:30;;;;;;;34.80;22.17;;;9.80;67.90;;;;;;5058990;28;20056;-96
2022/01/26 11:07:58;;;;;;;33.13;23.10;;;9.90;68.00;;;;;;5086352;28;20043;-96
2022/01/26 11:10:32;;;;;;;31.45;21.60;;;9.90;67.80;;;;;;5056728;28;20147;-94
2022/01/26 11:12:58;;;;;;;30.45;21.63;;;10.00;67.90;;;;;;5075069;28;20182;-93
2022/01/26 11:15:24;;;;;;;29.77;20.48;;;10.00;67.80;;;;;;5074055;28;20505;-93
2022/01/26 11:17:51;;;;;;;30.67;21.48;;;10.00;67.80;;;;;;5072611;28;20127;-92
2022/01/26 11:20:20;;;;;;;30.67;21.67;;;10.00;67.70;;;;;;5072290;28;20044;-94
2022/01/26 11:22:58;;;;;;;29.38;20.88;;;10.00;67.70;;;;;;5072680;28;20051;-87
2022/01/26 11:25:27;;;;;;;29.33;20.45;;;10.00;67.60;;;;;;5071004;28;20041;-88
2022/01/26 11:27:54;;;;;;;33.72;21.83;;;10.00;67.60;;;;;;5069783;28;20028;-84
2022/01/26 11:30:29;;;;;;;28.45;19.75;;;10.10;67.70;;;;;;5070872;28;20048;-89
2022/01/26 11:33:04;;;;;;;28.55;19.40;;;10.20;67.80;;;;;;5071162;28;20047;-88
2022/01/26 11:35:34;;;;;;;31.15;21.75;;;10.20;67.60;;;;;;5070249;28;20035;-83
2022/01/26 11:46:55;;;;;;;30.00;20.10;;;10.40;67.50;;;;;;5069817;28;20027;-84
2022/01/26 11:49:33;;;;;;;27.65;20.33;;;10.40;67.40;;;;;;5067858;28;20031;-87
2022/01/26 11:51:59;;;;;;;24.35;17.85;;;10.40;67.30;;;;;;5068356;28;20081;-87
2022/01/26 11:54:28;;;;;;;21.02;15.07;;;10.50;67.30;;;;;;5069259;28;20154;-85
2022/01/26 11:57:01;;;;;;;23.63;16.00;;;10.50;67.20;;;;;;5069845;28;20082;-85
2022/01/26 11:59:30;;;;;;;25.48;15.95;;;10.60;67.50;;;;;;5051410;28;20036;-86
2022/01/26 12:02:01;;;;;;;23.50;16.00;;;10.70;67.60;;;;;;5066829;28;20259;-85
2022/01/26 12:04:32;;;;;;;22.58;16.83;;;10.80;67.60;;;;;;5068109;28;20123;-84
2022/01/26 12:07:18;;;;;;;22.90;16.63;;;10.90;67.50;;;;;;5067391;28;20454;-85
2022/01/26 12:09:44;;;;;;;23.90;16.85;;;11.00;67.50;;;;;;5068493;28;20056;-86
2022/01/26 12:12:21;;;;;;;23.52;16.48;;;11.10;67.50;;;;;;5067849;28;20294;-86
2022/01/26 12:15:05;;;;;;;21.85;16.25;;;11.10;67.70;;;;;;5067592;28;20036;-86
2022/01/26 12:17:36;;;;;;;23.30;16.70;;;11.20;67.20;;;;;;5051017;28;20495;-85
2022/01/26 12:42:38;;;;;;;23.73;17.55;;;11.60;66.90;;;;;;5069125;28;20020;-83
2022/01/26 12:45:05;;;;;;;22.13;15.45;;;11.70;66.90;;;;;;5076669;28;20029;-87
2022/01/26 12:47:32;;;;;;;20.50;15.43;;;11.70;66.80;;;;;;5064924;28;20033;-87
2022/01/26 12:49:59;;;;;;;20.50;14.82;;;11.80;66.90;;;;;;5074117;28;20025;-87
2022/01/26 12:52:26;;;;;;;18.48;13.95;;;11.90;66.90;;;;;;5076963;28;20036;-88
2022/01/26 12:54:52;;;;;;;21.38;15.30;;;12.00;66.90;;;;;;5050076;28;20025;-87
2022/01/26 12:57:18;;;;;;;20.23;14.73;;;12.10;66.80;;;;;;5048187;28;20029;-86
2022/01/26 12:59:44;;;;;;;21.35;15.75;;;12.10;66.70;;;;;;5058298;28;20041;-85
2022/01/26 13:02:10;;;;;;;18.48;14.27;;;12.20;66.70;;;;;;5067902;28;20413;-86
2022/01/26 13:04:37;;;;;;;19.40;13.80;;;12.20;66.50;;;;;;5065669;28;20040;-90
2022/01/26 13:07:04;;;;;;;19.30;14.02;;;12.30;66.60;;;;;;5050075;28;20040;-85
2022/01/26 13:09:39;;;;;;;20.58;15.95;;;12.30;66.40;;;;;;5066352;28;20036;-85
2022/01/26 13:12:06;;;;;;;21.00;14.57;;;12.40;66.50;;;;;;5067165;28;20029;-84
2022/01/26 13:14:47;;;;;;;20.13;14.32;;;12.40;66.40;;;;;;5074611;28;20028;-85
2022/01/26 13:17:33;;;;;;;27.33;17.17;;;12.50;66.40;;;;;;5061735;28;20083;-86
2022/01/26 13:27:57;;;;;;;20.63;14.23;;;12.50;65.80;;;;;;5068636;28;20035;-90
2022/01/26 13:53:45;;;;;;;19.58;15.50;;;12.60;65.40;;;;;;5072400;28;20033;-93
2022/01/26 13:56:17;;;;;;;;;;;12.60;65.30;;;;;;5072718;28;20082;-93
2022/01/26 13:58:55;;;;;;;19.38;15.05;;;12.60;65.40;;;;;;5088507;28;19987;-93
2022/01/26 14:01:22;;;;;;;20.23;14.48;;;12.60;65.50;;;;;;5065695;28;20044;-92
2022/01/26 14:03:52;;;;;;;19.40;13.98;;;12.70;65.50;;;;;;5059886;28;20036;-93
2022/01/26 14:06:19;;;;;;;20.95;15.73;;;12.70;65.40;;;;;;5054374;28;20029;-92
2022/01/26 14:08:45;;;;;;;20.50;14.05;;;12.70;65.30;;;;;;5071236;28;20129;-91
2022/01/26 14:11:11;;;;;;;20.52;15.32;;;12.70;65.20;;;;;;5075184;28;20035;-95
2022/01/26 14:13:37;;;;;;;18.77;13.80;;;12.70;65.10;;;;;;5075773;28;20498;-94
2022/01/26 14:16:05;;;;;;;18.48;14.88;;;12.80;65.20;;;;;;5091750;28;20088;-94
2022/01/26 14:18:44;;;;;;;21.15;15.00;;;12.70;65.00;;;;;;5095548;28;20137;-94
2022/01/26 14:24:25;;;;;;;19.17;13.88;;;12.70;64.90;;;;;;5095726;28;20017;-88
2022/01/26 14:26:55;;;;;;;16.40;12.80;;;12.70;64.90;;;;;;5095263;28;20028;-94
2022/01/26 14:32:06;;;;;;;17.17;13.98;;;12.70;64.90;;;;;;5078436;28;20031;-95
2022/01/26 14:35:07;;;;;;;19.63;13.40;;;12.60;64.70;;;;;;5096199;28;20028;-90
2022/01/26 14:51:08;;;;;;;21.42;14.95;;;12.50;64.50;;;;;;5092487;28;20036;-91
2022/01/26 15:42:31;;;;;;;13.38;11.23;;;12.00;64.10;;;;;;5069005;28;20448;-89
2022/01/26 15:48:44;;;;;;;17.38;11.65;;;12.00;64.10;;;;;;5069830;28;20064;-89
2022/01/26 15:50:45;;;;;;;13.98;11.63;;;11.90;64.10;;;;;;5068998;28;20032;-91
2022/01/26 16:07:11;;;;;;;15.40;11.80;;;11.70;64.10;;;;;;5069869;28;20071;-90
2022/01/26 17:12:47;;;;;;;15.77;12.40;;;10.50;64.50;;;;;;5069943;28;20040;-91
2022/01/26 18:49:34;;;;;;;20.48;10.15;;;13.30;68.30;;;;;;5062812;28;20036;-85
2022/01/26 18:52:02;;;;;;;14.48;9.82;;;13.50;68.40;;;;;;5067066;28;20112;-81
2022/01/26 18:54:33;;;;;;;13.25;9.95;;;13.50;68.10;;;;;;5048416;28;20032;-82
2022/01/26 18:57:01;;;;;;;14.15;10.73;;;13.60;67.90;;;;;;5048553;28;20040;-81
2022/01/26 18:59:28;;;;;;;22.85;11.73;;;13.60;67.60;;;;;;5050341;28;20035;-81
2022/01/26 19:01:56;;;;;;;15.60;11.15;;;13.60;67.40;;;;;;5050576;28;20116;-81
2022/01/26 19:04:35;;;;;;;17.63;12.02;;;13.50;67.10;;;;;;5050394;28;20032;-82
2022/01/26 19:07:02;;;;;;;16.40;11.90;;;13.40;66.90;;;;;;5048746;28;20033;-81
2022/01/26 19:09:31;;;;;;;13.63;9.98;;;13.30;66.80;;;;;;5040087;28;20043;-80
2022/01/26 19:12:00;;;;;;;13.88;8.73;;;13.20;67.30;;;;;;5068685;28;20025;-77
2022/01/26 19:14:33;;;;;;;14.30;9.60;;;13.20;67.20;;;;;;5064335;28;20498;-78
2022/01/26 19:17:11;;;;;;;14.85;10.50;;;13.20;67.40;;;;;;5050994;28;20099;-79
2022/01/26 19:28:28;;;;;;;19.63;12.50;;;13.40;67.30;;;;;;5088251;28;20032;-77
2022/01/26 19:44:07;;;;;;;19.23;13.30;;;13.50;66.90;;;;;;5068343;28;20021;-78
2022/01/26 19:52:07;;;;;;;21.05;15.05;;;13.50;66.80;;;;;;5087489;28;20037;-78
2022/01/26 19:54:34;;;;;;;24.05;14.90;;;13.50;66.70;;;;;;5086647;28;20036;-77
2022/01/26 19:57:01;;;;;;;17.83;13.43;;;13.50;66.70;;;;;;5085973;28;20029;-78
2022/01/26 19:59:28;;;;;;;20.95;14.82;;;13.50;66.70;;;;;;5078254;28;20063;-77
2022/01/26 20:01:54;;;;;;;22.85;17.67;;;13.50;66.70;;;;;;5081895;28;20040;-77
2022/01/26 20:04:20;;;;;;;19.13;15.23;;;13.50;66.60;;;;;;5066222;28;20058;-77
2022/01/26 20:06:47;;;;;;;22.20;14.25;;;13.50;66.60;;;;;;5065643;28;20110;-77
2022/01/26 20:09:27;;;;;;;18.30;14.40;;;13.50;66.60;;;;;;5071178;28;20115;-78